Time;durP1;ratioP1;P1;durP2;ratioP2;P2;SDS_P1;SDS_P2;PMS_P1;PMS_P2;Temp;Humidity;BMP_temperature;BMP_pressure;BME280_temperature;BME280_humidity;BME280_pressure;Samples;Min_cycle;Max_cycle;Signal;HPM_P1;HPM_P2
2023/05/11 00:00:30;;;;;;;;;7.00;5.33;;;;;17.14;100.00;100899.69;4746014;29;46088;-86
2023/05/11 00:02:55;;;;;;;;;2.00;2.00;;;;;17.09;97.82;100890.78;4746275;29;46937;-86
2023/05/11 00:05:21;;;;;;;;;4.00;3.00;;;;;17.12;100.00;100895.22;4749164;29;45436;-86
2023/05/11 00:07:46;;;;;;;;;5.00;4.00;;;;;17.16;100.00;100895.19;4731059;29;45532;-86
2023/05/11 00:10:12;;;;;;;;;3.00;3.00;;;;;17.12;98.18;100895.22;4745874;30;45469;-85
2023/05/11 00:12:38;;;;;;;;;2.33;2.33;;;;;17.16;100.00;100886.22;4731295;30;47410;-85
2023/05/11 00:15:05;;;;;;;;;4.67;4.00;;;;;17.03;100.00;100874.72;4728703;30;45213;-86
2023/05/11 00:17:30;;;;;;;;;5.67;4.67;;;;;17.15;100.00;100887.16;4728884;30;45379;-85
2023/05/11 00:19:55;;;;;;;;;3.00;3.00;;;;;17.20;100.00;100882.59;4730189;30;45180;-86
2023/05/11 00:22:21;;;;;;;;;4.33;3.00;;;;;17.28;100.00;100880.72;4731178;30;46652;-86
2023/05/11 00:24:46;;;;;;;;;3.33;3.33;;;;;17.29;100.00;100874.44;4745425;30;45664;-86
2023/05/11 00:27:12;;;;;;;;;3.33;3.33;;;;;17.37;100.00;100886.00;4745546;30;45458;-86
2023/05/11 00:29:37;;;;;;;;;5.33;5.00;;;;;17.38;100.00;100889.56;4730791;30;45521;-86
2023/05/11 00:32:03;;;;;;;;;4.00;4.00;;;;;17.35;100.00;100877.06;4744907;30;48380;-86
2023/05/11 00:34:28;;;;;;;;;3.00;2.00;;;;;17.32;100.00;100877.09;4729255;30;45540;-85
2023/05/11 00:37:00;;;;;;;;;3.00;2.00;;;;;17.36;100.00;100873.44;4729129;30;45414;-85
2023/05/11 00:39:38;;;;;;;;;2.00;2.00;;;;;17.45;100.00;100876.94;4727703;30;44907;-86
2023/05/11 00:42:06;;;;;;;;;2.00;2.00;;;;;17.19;99.52;100870.09;4726524;30;47251;-85
2023/05/11 00:44:31;;;;;;;;;3.33;3.00;;;;;17.17;100.00;100872.78;4727316;30;45483;-85
2023/05/11 00:46:57;;;;;;;;;4.33;3.00;;;;;17.12;100.00;100863.00;4742625;30;45515;-85
2023/05/11 00:49:22;;;;;;;;;5.00;3.00;;;;;17.11;100.00;100877.34;4742220;30;45538;-85
2023/05/11 00:51:48;;;;;;;;;4.67;3.33;;;;;17.03;100.00;100861.28;4742109;30;45562;-86
2023/05/11 00:54:14;;;;;;;;;5.33;3.00;;;;;16.97;100.00;100870.31;4743877;30;45487;-85
2023/05/11 00:56:41;;;;;;;;;3.00;3.00;;;;;16.97;94.45;100877.47;4743168;30;45274;-85
2023/05/11 00:59:07;;;;;;;;;3.00;1.00;;;;;16.84;96.27;100867.75;4726388;30;45594;-85
2023/05/11 01:01:34;;;;;;;;;5.00;4.00;;;;;16.78;96.96;100871.34;4725300;30;47545;-86
2023/05/11 01:04:01;;;;;;;;;6.33;5.00;;;;;16.73;100.00;100865.16;4727071;30;45488;-85
2023/05/11 01:06:38;;;;;;;;;5.00;5.00;;;;;16.84;99.01;100855.19;4728270;30;45448;-86
2023/05/11 01:09:26;;;;;;;;;4.67;3.33;;;;;16.95;100.00;100869.44;4728894;30;45492;-85
2023/05/11 01:12:06;;;;;;;;;1.67;1.67;;;;;16.80;98.67;100861.47;4745021;29;46119;-85
2023/05/11 01:14:45;;;;;;;;;4.00;2.33;;;;;16.76;99.62;100865.09;4730474;29;45498;-85
2023/05/11 01:17:20;;;;;;;;;3.33;2.67;;;;;16.70;100.00;100860.66;4728259;30;44851;-85
2023/05/11 01:19:59;;;;;;;;;4.00;2.33;;;;;16.73;100.00;100865.16;4745545;30;45348;-86
2023/05/11 01:22:46;;;;;;;;;2.33;1.33;;;;;16.76;100.00;100870.47;4729550;30;48599;-86
2023/05/11 01:25:21;;;;;;;;;2.00;1.00;;;;;16.62;99.85;100867.03;4742958;30;45960;-85
2023/05/11 01:28:28;;;;;;;;;2.00;2.00;;;;;16.64;100.00;100865.22;4745650;30;45600;-85
2023/05/11 01:31:01;;;;;;;;;3.00;3.00;;;;;16.56;100.00;100855.44;4658790;30;45499;-85
2023/05/11 01:33:33;;;;;;;;;4.00;2.00;;;;;16.55;100.00;100860.81;4670849;30;47284;-85
2023/05/11 01:36:05;;;;;;;;;4.00;2.33;;;;;16.51;100.00;100862.63;4670933;30;45999;-85
2023/05/11 01:38:34;;;;;;;;;2.33;2.00;;;;;16.49;100.00;100860.88;4671304;30;45337;-85
2023/05/11 01:41:05;;;;;;;;;2.00;1.00;;;;;16.43;100.00;100855.56;4672403;30;45527;-85
2023/05/11 01:43:35;;;;;;;;;5.67;1.00;;;;;16.47;100.00;100868.94;4674047;30;47943;-85
2023/05/11 01:46:03;;;;;;;;;4.00;2.33;;;;;16.42;100.00;100862.72;4657879;30;45907;-85
2023/05/11 01:48:34;;;;;;;;;2.67;1.33;;;;;16.51;100.00;100869.81;4674239;30;45438;-85
2023/05/11 01:51:01;;;;;;;;;3.33;3.33;;;;;16.50;100.00;100868.94;4658974;30;45253;-85
2023/05/11 01:53:30;;;;;;;;;4.00;3.00;;;;;16.50;100.00;100879.66;4658343;30;47993;-84
2023/05/11 01:55:58;;;;;;;;;2.67;1.00;;;;;16.43;100.00;100872.56;4672712;30;45374;-85
2023/05/11 01:58:24;;;;;;;;;4.67;4.00;;;;;16.48;100.00;100870.72;4673407;30;45450;-86
2023/05/11 02:00:51;;;;;;;;;2.00;2.00;;;;;16.62;100.00;100877.75;4671699;30;45510;-85
2023/05/11 02:03:18;;;;;;;;;2.33;2.33;;;;;16.56;100.00;100873.34;4671810;30;46274;-86
2023/05/11 02:05:46;;;;;;;;;6.00;4.00;;;;;16.69;100.00;100868.75;4720885;30;45508;-86
2023/05/11 02:08:13;;;;;;;;;4.00;4.00;;;;;16.76;100.00;100871.38;4712376;30;45260;-86
2023/05/11 02:14:03;;;;;;;;;2.67;2.67;;;;;16.78;100.00;100871.34;4728659;30;45956;-86
2023/05/11 02:16:31;;;;;;;;;1.00;1.00;;;;;16.82;100.00;100875.81;4712166;30;45457;-85
2023/05/11 02:18:58;;;;;;;;;3.33;2.33;;;;;16.82;100.00;100878.50;4727021;30;44880;-85
2023/05/11 02:21:26;;;;;;;;;3.00;2.67;;;;;16.84;100.00;100873.13;4726160;30;45462;-85
2023/05/11 02:23:52;;;;;;;;;3.67;3.67;;;;;16.79;100.00;100884.78;4724408;30;47351;-86
2023/05/11 02:26:17;;;;;;;;;3.00;3.00;;;;;16.80;100.00;100882.97;4709656;30;45421;-86
2023/05/11 02:28:43;;;;;;;;;3.67;3.67;;;;;16.78;100.00;100879.41;4725351;30;45318;-86
2023/05/11 02:31:15;;;;;;;;;3.00;1.67;;;;;16.91;100.00;100877.53;4726537;30;45412;-86
2023/05/11 02:33:46;;;;;;;;;3.67;3.67;;;;;16.87;100.00;100873.09;4725780;30;45740;-86
2023/05/11 02:36:16;;;;;;;;;4.00;4.00;;;;;16.92;100.00;100882.88;4711606;30;45532;-86
2023/05/11 02:38:45;;;;;;;;;3.00;3.00;;;;;16.89;100.00;100874.88;4728415;30;45455;-86
2023/05/11 02:41:15;;;;;;;;;3.00;3.00;;;;;16.88;100.00;100874.88;4740261;30;45471;-85
2023/05/11 02:43:46;;;;;;;;;2.67;2.67;;;;;16.97;100.00;100886.44;4725613;30;47729;-85
2023/05/11 02:46:16;;;;;;;;;2.67;2.67;;;;;16.93;100.00;100879.31;4727968;30;45623;-85
2023/05/11 02:48:51;;;;;;;;;2.00;2.00;;;;;16.96;100.00;100878.38;4728785;30;45350;-86
2023/05/11 02:51:21;;;;;;;;;4.00;3.67;;;;;16.87;100.00;100884.75;4728635;30;45677;-86
2023/05/11 02:53:48;;;;;;;;;2.00;2.00;;;;;16.85;100.00;100870.44;4727942;30;48013;-85
2023/05/11 02:56:15;;;;;;;;;2.00;2.00;;;;;16.74;100.00;100878.56;4726918;30;45919;-86
2023/05/11 02:58:41;;;;;;;;;2.00;1.00;;;;;16.64;100.00;100873.28;4727482;30;45281;-85
2023/05/11 03:01:07;;;;;;;;;4.33;3.00;;;;;16.56;100.00;100871.56;4726973;30;45310;-86
2023/05/11 03:06:54;;;;;;;;;3.67;2.00;;;;;16.46;100.00;100866.25;4740881;30;45420;-86
2023/05/11 03:09:20;;;;;;;;;1.00;1.00;;;;;16.44;100.00;100876.13;4745046;30;45403;-86
2023/05/11 03:11:46;;;;;;;;;2.33;1.67;;;;;16.41;100.00;100866.31;4745233;30;45434;-86
2023/05/11 03:14:12;;;;;;;;;1.00;1.00;;;;;16.40;100.00;100877.94;4729243;30;47139;-85
2023/05/11 03:16:38;;;;;;;;;4.00;2.00;;;;;16.40;100.00;100875.25;4729933;30;45425;-87
2023/05/11 03:19:06;;;;;;;;;2.67;2.00;;;;;16.41;100.00;100874.34;4729838;30;45825;-86
2023/05/11 03:21:33;;;;;;;;;2.00;2.00;;;;;16.32;100.00;100863.69;4744920;30;45359;-86
2023/05/11 03:23:59;;;;;;;;;1.00;1.00;;;;;16.32;100.00;100869.97;4746446;30;46099;-86
2023/05/11 03:26:27;;;;;;;;;3.00;3.00;;;;;16.40;100.00;100875.25;4730813;29;45304;-86
2023/05/11 03:28:56;;;;;;;;;2.00;2.00;;;;;16.39;100.00;100866.31;4729889;30;45432;-85
2023/05/11 03:31:21;;;;;;;;;2.67;2.00;;;;;16.25;100.00;100867.31;4730211;30;45689;-85
2023/05/11 03:33:46;;;;;;;;;4.00;3.00;;;;;16.24;100.00;100865.53;4745369;29;46419;-86
2023/05/11 03:36:13;;;;;;;;;2.00;2.00;;;;;16.31;100.00;100867.28;4729389;29;45436;-85
2023/05/11 03:38:39;;;;;;;;;2.33;2.00;;;;;16.12;100.00;100855.81;4747324;29;45483;-87
2023/05/11 03:41:04;;;;;;;;;1.67;1.67;;;;;16.14;100.00;100859.38;4746736;30;45486;-85
2023/05/11 03:43:33;;;;;;;;;2.00;1.00;;;;;16.30;100.00;100876.22;4729460;29;46996;-85
2023/05/11 03:46:01;;;;;;;;;1.00;1.00;;;;;16.25;100.00;100864.66;4744749;29;45311;-86
2023/05/11 03:48:28;;;;;;;;;5.33;2.67;;;;;16.33;100.00;100861.00;4730057;29;45377;-86
2023/05/11 03:50:54;;;;;;;;;2.00;2.00;;;;;16.28;100.00;100870.88;4744997;30;45412;-87
2023/05/11 03:53:20;;;;;;;;;3.00;3.00;;;;;16.27;100.00;100865.53;4742851;29;47562;-86
2023/05/11 03:55:45;;;;;;;;;1.67;1.67;;;;;16.24;100.00;100866.44;4743488;30;46198;-86
2023/05/11 03:58:11;;;;;;;;;3.00;3.00;;;;;16.27;100.00;100873.56;4728719;30;45406;-85
2023/05/11 04:00:40;;;;;;;;;4.00;2.00;;;;;16.44;100.00;100877.03;4745458;30;45223;-86
2023/05/11 04:03:07;;;;;;;;;2.00;2.00;;;;;16.34;100.00;100872.59;4745639;30;46193;-85
2023/05/11 04:05:33;;;;;;;;;1.33;1.33;;;;;16.32;100.00;100874.41;4744462;30;45821;-85
2023/05/11 04:07:59;;;;;;;;;2.67;2.00;;;;;16.33;100.00;100860.09;4729180;30;45517;-86
2023/05/11 04:10:25;;;;;;;;;3.00;2.00;;;;;16.33;100.00;100871.72;4743970;30;45759;-86
2023/05/11 04:12:51;;;;;;;;;1.33;1.33;;;;;16.25;100.00;100852.09;4728194;30;46759;-86
2023/05/11 04:15:17;;;;;;;;;1.00;1.00;;;;;16.20;100.00;100860.19;4744315;30;45658;-86
2023/05/11 04:17:42;;;;;;;;;2.67;2.33;;;;;16.11;100.00;100865.63;4742811;30;45454;-86
2023/05/11 04:20:08;;;;;;;;;2.00;2.00;;;;;16.03;100.00;100862.09;4727707;30;45311;-86
2023/05/11 04:22:33;;;;;;;;;4.00;1.67;;;;;15.95;100.00;100854.09;4727710;30;47003;-86
2023/05/11 04:24:59;;;;;;;;;2.00;2.00;;;;;16.02;100.00;100860.34;4727560;30;45758;-86
2023/05/11 04:27:24;;;;;;;;;2.00;2.00;;;;;16.06;100.00;100850.44;4727997;30;45739;-85
2023/05/11 04:29:50;;;;;;;;;5.33;3.67;;;;;15.96;100.00;100850.53;4727978;30;45421;-85
2023/05/11 04:32:15;;;;;;;;;3.33;2.00;;;;;15.89;100.00;100850.56;4743242;30;45790;-86
2023/05/11 04:34:40;;;;;;;;;4.00;4.00;;;;;15.87;100.00;100863.09;4742068;30;45350;-86
2023/05/11 04:37:06;;;;;;;;;2.67;2.67;;;;;15.84;100.00;100849.72;4726780;30;45441;-86
2023/05/11 04:39:32;;;;;;;;;2.00;2.00;;;;;15.87;100.00;100852.38;4744359;30;45410;-86
2023/05/11 04:41:58;;;;;;;;;4.33;3.00;;;;;15.84;100.00;100861.31;4743540;30;45472;-86
2023/05/11 04:44:24;;;;;;;;;6.00;4.00;;;;;15.82;100.00;100857.75;4744438;30;45475;-86
2023/05/11 04:46:53;;;;;;;;;2.33;2.00;;;;;16.05;100.00;100864.78;4743987;30;45137;-85
2023/05/11 04:49:18;;;;;;;;;1.67;1.67;;;;;15.96;100.00;100860.38;4744211;30;45410;-85
2023/05/11 04:51:43;;;;;;;;;3.00;3.00;;;;;16.06;100.00;100867.47;4728214;30;46971;-86
2023/05/11 04:54:10;;;;;;;;;1.67;1.67;;;;;16.05;100.00;100852.25;4730573;30;45762;-85
2023/05/11 04:56:39;;;;;;;;;3.00;2.00;;;;;16.05;100.00;100865.66;4729960;30;45391;-85
2023/05/11 04:59:05;;;;;;;;;2.00;2.00;;;;;16.08;100.00;100854.91;4728581;30;45858;-86
2023/05/11 05:01:31;;;;;;;;;2.67;2.67;;;;;16.17;100.00;100864.69;4745574;30;46678;-87
2023/05/11 05:03:56;;;;;;;;;6.00;4.00;;;;;16.22;100.00;100870.03;4748173;30;45498;-86
2023/05/11 05:06:21;;;;;;;;;4.33;3.00;;;;;16.30;100.00;100871.75;4749147;29;45463;-86
2023/05/11 05:08:47;;;;;;;;;4.00;4.00;;;;;16.35;100.00;100875.28;4731155;30;45657;-86
2023/05/11 05:11:12;;;;;;;;;5.00;4.00;;;;;16.36;100.00;100877.09;4745729;30;45348;-87
2023/05/11 05:13:38;;;;;;;;;2.67;2.67;;;;;16.31;100.00;100864.59;4730676;30;45385;-84
2023/05/11 05:16:03;;;;;;;;;3.00;3.00;;;;;16.34;100.00;100867.25;4746510;30;44792;-85
2023/05/11 05:18:29;;;;;;;;;2.00;2.00;;;;;16.39;100.00;100886.91;4731736;30;45397;-84
2023/05/11 05:20:54;;;;;;;;;6.33;3.33;;;;;16.41;100.00;100879.72;4733282;30;47115;-85
2023/05/11 05:23:20;;;;;;;;;5.67;4.00;;;;;16.45;100.00;100881.47;4733016;30;45446;-85
2023/05/11 05:25:46;;;;;;;;;5.00;4.00;;;;;16.42;100.00;100881.53;4749368;30;45499;-84
2023/05/11 05:28:11;;;;;;;;;3.00;3.00;;;;;16.49;100.00;100891.28;4731452;30;45539;-84
2023/05/11 05:30:38;;;;;;;;;3.67;3.67;;;;;16.65;100.00;100893.88;4733178;30;47912;-84
2023/05/11 05:33:04;;;;;;;;;5.00;5.00;;;;;16.52;100.00;100888.59;4731645;30;46096;-84
2023/05/11 05:35:29;;;;;;;;;5.00;3.67;;;;;16.56;100.00;100895.72;4731661;30;45303;-84
2023/05/11 05:37:55;;;;;;;;;5.33;4.67;;;;;16.62;100.00;100899.25;4731713;30;45676;-85
2023/05/11 05:40:20;;;;;;;;;3.00;2.67;;;;;16.56;100.00;100887.66;4747004;30;45361;-85
2023/05/11 05:42:46;;;;;;;;;2.67;2.67;;;;;16.54;100.00;100891.25;4748428;30;44754;-85
2023/05/11 05:45:12;;;;;;;;;5.00;3.67;;;;;16.58;100.00;100882.25;4732475;30;45618;-84
2023/05/11 05:47:38;;;;;;;;;3.00;3.00;;;;;16.65;100.00;100893.88;4733960;30;45615;-87
2023/05/11 05:50:05;;;;;;;;;3.67;3.67;;;;;16.72;100.00;100893.78;4748127;30;47345;-85
2023/05/11 05:52:30;;;;;;;;;2.67;2.67;;;;;16.73;100.00;100894.69;4732460;30;45453;-86
2023/05/11 05:54:56;;;;;;;;;3.67;3.67;;;;;16.73;100.00;100905.44;4732507;30;45272;-85
2023/05/11 05:57:21;;;;;;;;;5.00;3.00;;;;;16.76;100.00;100913.44;4748466;30;45358;-85
2023/05/11 05:59:47;;;;;;;;;5.00;5.00;;;;;16.79;100.00;100908.94;4734895;30;47788;-86
2023/05/11 06:02:12;;;;;;;;;5.00;4.33;;;;;16.79;100.00;100891.94;4750393;30;45364;-86
2023/05/11 06:04:37;;;;;;;;;2.00;2.00;;;;;16.89;100.00;100907.09;4734530;30;45321;-86
2023/05/11 06:07:03;;;;;;;;;3.00;3.00;;;;;16.85;100.00;100897.28;4747424;30;45432;-86
2023/05/11 06:09:28;;;;;;;;;3.33;3.33;;;;;16.84;100.00;100908.94;4746687;30;46801;-86
2023/05/11 06:11:54;;;;;;;;;5.00;4.00;;;;;16.76;100.00;100902.69;4744950;30;45445;-86
2023/05/11 06:14:21;;;;;;;;;9.00;4.33;;;;;16.76;100.00;100908.06;4749404;30;45937;-86
2023/05/11 06:16:47;;;;;;;;;5.00;3.67;;;;;16.77;100.00;100909.88;4746582;30;46025;-85
2023/05/11 06:19:12;;;;;;;;;6.00;5.00;;;;;16.80;100.00;100909.81;4746496;30;45413;-85
2023/05/11 06:21:40;;;;;;;;;5.33;5.33;;;;;16.74;100.00;100909.88;4748712;30;45369;-85
2023/05/11 06:24:08;;;;;;;;;5.00;5.00;;;;;16.70;95.50;100925.13;4747270;30;45439;-86
2023/05/11 06:26:37;;;;;;;;;7.33;6.00;;;;;16.62;92.49;100884.00;4746606;30;45314;-85
2023/05/11 06:29:03;;;;;;;;;7.00;4.00;;;;;16.65;97.46;100926.09;4732941;30;48081;-86
2023/05/11 06:31:58;;;;;;;;;9.00;6.00;;;;;16.80;100.00;100925.94;4762298;29;44736;-86
2023/05/11 06:34:28;;;;;;;;;6.33;6.33;;;;;16.69;98.41;100923.34;4759946;29;44760;-86
2023/05/11 06:37:20;;;;;;;;;4.67;4.67;;;;;16.67;100.00;100908.16;4759856;29;44773;-86
2023/05/11 06:39:53;;;;;;;;;8.00;6.00;;;;;16.85;99.51;100926.84;4722105;30;48316;-86
2023/05/11 06:42:26;;;;;;;;;7.00;6.00;;;;;16.58;96.22;100930.59;4737818;30;45241;-86
2023/05/11 06:44:52;;;;;;;;;5.67;5.33;;;;;16.58;99.97;100926.13;4735908;30;45338;-87
2023/05/11 06:47:40;;;;;;;;;9.67;7.67;;;;;16.79;97.53;100935.81;4734715;30;45418;-86
2023/05/11 06:50:41;;;;;;;;;5.00;5.00;;;;;16.88;99.92;100929.47;4738901;30;45473;-86
2023/05/11 06:53:16;;;;;;;;;10.00;9.00;;;;;16.65;97.81;100907.28;4740057;30;44655;-86
2023/05/11 06:56:19;;;;;;;;;5.00;5.00;;;;;16.94;99.54;100925.84;4711227;30;45556;-87
2023/05/11 07:27:09;;;;;;;;;;;;;;;;;;;;;
2023/05/11 07:35:32;;;;;;;;;10.00;6.00;;;;;18.37;95.86;100929.53;4821067;24;46552;-85
2023/05/11 07:38:08;;;;;;;;;8.00;8.00;;;;;18.29;94.62;100877.63;4777757;29;44985;-87
2023/05/11 09:02:13;;;;;;;;;7.00;7.00;;;;;20.74;81.27;100911.38;1671491;23;46257;-86
2023/05/11 09:05:28;;;;;;;;;8.33;8.00;;;;;20.68;72.34;100916.94;4829341;29;45549;-87
2023/05/11 09:08:13;;;;;;;;;37.00;30.67;;;;;20.44;79.65;100913.00;4759045;29;45557;-86
2023/05/11 09:10:59;;;;;;;;;6.67;6.67;;;;;20.43;78.46;100914.81;4793418;29;44815;-86
2023/05/11 09:21:21;;;;;;;;;9.67;9.67;;;;;20.66;81.07;100910.69;4798987;24;45413;-86
2023/05/11 09:24:28;;;;;;;;;6.33;6.33;;;;;20.96;76.12;100915.31;4795228;29;45503;-86
2023/05/11 09:38:18;;;;;;;;;12.33;10.67;;;;;21.20;72.53;100907.47;4837497;24;45764;-85
2023/05/11 09:48:24;;;;;;;;;6.00;5.00;;;;;21.43;70.63;100914.09;4786286;29;45537;-85
2023/05/11 09:51:15;;;;;;;;;6.33;6.33;;;;;21.70;71.33;100913.31;4789767;29;46886;-86
2023/05/11 09:54:25;;;;;;;;;;;;;;;;;;;;;
2023/05/11 09:57:45;;;;;;;;;;;;;;;;;;;;;
2023/05/11 10:05:11;;;;;;;;;7.00;7.00;;;;;21.89;71.10;100905.50;4716675;29;45625;-86
2023/05/11 10:15:34;;;;;;;;;11.33;10.33;;;;;21.23;72.55;100898.38;4719859;30;44867;-86
2023/05/11 10:18:39;;;;;;;;;;;;;;;;;;;;;
2023/05/11 10:25:48;;;;;;;;;5.33;5.33;;;;;20.77;72.88;100897.81;4675632;30;45675;-86
2023/05/11 10:29:21;;;;;;;;;5.00;4.00;;;;;20.44;71.38;100880.56;4663773;30;46044;-86
2023/05/11 10:42:55;;;;;;;;;5.67;5.67;;;;;20.09;71.62;100896.69;4580729;30;45377;-85
2023/05/11 10:56:43;;;;;;;;;4.67;4.67;;;;;20.21;70.98;100894.63;4645247;30;44892;-85
2023/05/11 10:59:49;;;;;;;;;12.67;9.67;;;;;20.28;72.53;100896.25;4627072;30;46372;-84
2023/05/11 11:02:52;;;;;;;;;;;;;;;;;;;;;
2023/05/11 11:05:34;;;;;;;;;5.67;5.67;;;;;20.32;70.07;100879.97;4780187;29;69189;-85
2023/05/11 11:08:07;;;;;;;;;7.00;7.00;;;;;20.30;69.07;100887.22;4788256;29;45598;-85
2023/05/11 11:10:36;;;;;;;;;5.67;5.00;;;;;20.26;72.33;100884.59;4819968;29;45279;-83
2023/05/11 11:13:10;;;;;;;;;4.00;4.00;;;;;20.50;70.97;100888.53;4822103;29;44923;-85
2023/05/11 11:16:18;;;;;;;;;7.67;5.00;;;;;20.64;69.21;100886.41;4820502;29;45445;-85
2023/05/11 11:23:22;;;;;;;;;;;;;;;;;;;;;
2023/05/11 11:37:28;;;;;;;;;5.00;4.00;;;;;20.41;69.77;100862.63;5193731;24;45479;-84
2023/05/11 11:40:46;;;;;;;;;8.00;5.67;;;;;20.45;67.92;100844.53;4825659;29;45413;-86
2023/05/11 15:49:31;;;;;;;;;2.67;2.67;;;;;24.44;59.79;100778.75;3177338;24;46663;-86
2023/05/11 15:53:20;;;;;;;;;2.00;2.00;;;;;26.76;51.93;100763.25;4808130;29;46383;-86
2023/05/11 15:55:54;;;;;;;;;4.00;4.00;;;;;28.64;56.59;100767.19;4836192;29;47887;-86
2023/05/11 15:58:38;;;;;;;;;3.33;3.00;;;;;31.21;57.58;100756.59;4941172;24;46054;-88
2023/05/11 16:10:31;;;;;;;;;2.33;2.33;;;;;27.25;48.18;100758.78;5191296;24;47218;-87
2023/05/11 16:13:08;;;;;;;;;2.33;2.33;;;;;26.46;52.63;100767.47;4782690;29;45262;-87
2023/05/11 16:15:37;;;;;;;;;5.00;4.00;;;;;25.44;54.22;100735.31;4766636;29;45393;-86
2023/05/11 16:18:05;;;;;;;;;4.00;4.00;;;;;25.21;54.72;100758.13;4780656;29;47998;-86
2023/05/11 16:21:17;;;;;;;;;4.67;3.00;;;;;24.59;48.72;100738.28;4767362;29;45448;-86
2023/05/11 16:28:55;;;;;;;;;5.00;2.33;;;;;23.45;55.27;100737.50;4824895;24;45530;-85
2023/05/11 16:32:38;;;;;;;;;4.00;4.00;;;;;23.07;55.12;100780.59;4704097;30;46686;-86
2023/05/11 16:35:19;;;;;;;;;4.00;4.00;;;;;22.69;57.70;100748.47;4678828;30;45419;-86
2023/05/11 16:38:10;;;;;;;;;3.67;3.67;;;;;22.50;57.49;100758.19;4693810;29;44681;-86
2023/05/11 16:40:49;;;;;;;;;3.67;3.67;;;;;22.35;57.83;100756.91;4691548;29;44912;-86
2023/05/11 16:43:44;;;;;;;;;;;;;;;;;;;;;
2023/05/11 16:50:51;;;;;;;;;3.33;3.33;;;;;22.18;60.91;100776.44;4646921;30;45402;-86
2023/05/11 16:53:22;;;;;;;;;5.67;4.33;;;;;22.06;56.71;100772.28;4678250;30;45437;-86
2023/05/11 16:56:21;;;;;;;;;5.67;4.00;;;;;21.89;58.22;100758.41;4700499;29;46767;-86
2023/05/11 17:02:18;;;;;;;;;4.67;3.67;;;;;21.49;61.34;100746.13;4711784;30;44917;-87
2023/05/11 17:05:24;;;;;;;;;3.33;3.33;;;;;21.44;60.35;100743.59;4756485;29;45454;-87
2023/05/11 17:07:50;;;;;;;;;4.33;4.33;;;;;21.42;61.29;100777.00;4786011;29;47089;-86
2023/05/11 17:10:19;;;;;;;;;4.00;4.00;;;;;21.34;58.70;100770.00;4787801;29;45339;-86
2023/05/11 17:12:51;;;;;;;;;5.67;5.67;;;;;21.44;60.73;100777.88;4786902;29;45672;-86
2023/05/11 17:15:19;;;;;;;;;4.33;4.33;;;;;21.31;61.60;100769.19;4802232;29;45545;-86
2023/05/11 17:17:45;;;;;;;;;4.00;4.00;;;;;21.11;59.48;100769.81;4786201;29;48093;-86
2023/05/11 17:20:21;;;;;;;;;3.67;3.67;;;;;21.15;61.13;100761.56;4803404;29;45354;-85
2023/05/11 17:22:47;;;;;;;;;4.67;4.67;;;;;20.85;59.91;100743.53;4787379;29;45342;-86
2023/05/11 17:25:13;;;;;;;;;21.00;16.33;;;;;20.90;61.54;100749.66;4785931;29;45448;-86
2023/05/11 17:28:43;;;;;;;;;2.00;2.00;;;;;20.98;56.85;100745.81;4801882;29;45522;-86
2023/05/11 17:31:14;;;;;;;;;3.67;3.67;;;;;21.07;59.22;100778.94;4780522;29;45367;-86
2023/05/11 17:33:40;;;;;;;;;5.33;4.00;;;;;20.81;59.09;100764.34;4795128;29;45532;-86
2023/05/11 17:36:06;;;;;;;;;4.00;4.00;;;;;20.84;58.01;100777.75;4800306;29;45542;-86
2023/05/11 17:38:32;;;;;;;;;6.00;5.00;;;;;20.84;60.39;100777.75;4800231;29;47383;-86
2023/05/11 17:40:58;;;;;;;;;4.67;4.67;;;;;20.90;60.67;100779.41;4800347;29;46057;-86
2023/05/11 17:43:24;;;;;;;;;2.00;2.00;;;;;20.95;61.34;100772.06;4803502;29;45235;-86
2023/05/11 17:45:53;;;;;;;;;4.00;4.00;;;;;20.86;62.51;100772.31;4802928;29;45524;-86
2023/05/11 17:48:18;;;;;;;;;3.67;2.33;;;;;20.73;59.92;100748.34;4801600;29;46965;-86
2023/05/11 17:50:44;;;;;;;;;4.67;4.67;;;;;20.75;59.48;100761.81;4803446;29;45437;-86
2023/05/11 17:53:09;;;;;;;;;5.00;4.00;;;;;20.82;62.10;100782.31;4801213;29;45388;-86
2023/05/11 17:55:38;;;;;;;;;3.00;3.00;;;;;20.98;61.55;100774.66;4800948;29;45446;-86
2023/05/11 17:58:09;;;;;;;;;4.00;4.00;;;;;20.80;60.70;100781.47;4799221;29;46945;-86
2023/05/11 18:00:36;;;;;;;;;7.00;4.00;;;;;20.71;62.39;100765.53;4798844;29;45404;-86
2023/05/11 18:03:02;;;;;;;;;3.00;3.00;;;;;20.69;59.92;100780.91;4799172;29;45361;-86
2023/05/11 18:05:27;;;;;;;;;5.00;5.00;;;;;20.60;61.64;100781.13;4798453;29;45361;-86
2023/05/11 18:11:14;;;;;;;;;4.67;3.67;;;;;20.39;61.68;100799.66;4799811;29;45466;-86
2023/05/11 18:13:40;;;;;;;;;4.00;2.33;;;;;20.21;61.26;100783.91;4798645;29;45420;-86
2023/05/11 18:16:05;;;;;;;;;4.33;4.33;;;;;20.12;62.06;100785.94;4797319;29;45413;-86
2023/05/11 18:18:31;;;;;;;;;3.00;3.00;;;;;20.03;60.55;100788.84;4795356;29;47171;-87
2023/05/11 18:20:56;;;;;;;;;4.00;4.00;;;;;19.98;64.17;100799.75;4800199;29;45421;-87
2023/05/11 18:23:22;;;;;;;;;4.00;4.00;;;;;19.90;59.94;100799.06;4801025;29;45387;-86
2023/05/11 18:25:47;;;;;;;;;4.00;4.00;;;;;19.88;63.88;100808.13;4798770;29;45794;-85
2023/05/11 18:28:13;;;;;;;;;5.33;3.67;;;;;19.77;63.85;100790.38;4798612;29;47509;-86
2023/05/11 18:30:38;;;;;;;;;3.67;2.67;;;;;19.74;64.53;100794.94;4798261;29;45368;-86
2023/05/11 18:33:04;;;;;;;;;2.67;2.67;;;;;19.74;64.77;100806.63;4799183;29;45453;-86
2023/05/11 18:35:30;;;;;;;;;4.00;3.00;;;;;19.70;65.09;100795.91;4799288;29;45429;-86
2023/05/11 18:37:57;;;;;;;;;4.00;4.00;;;;;19.56;57.78;100796.19;4799361;29;45441;-86
2023/05/11 18:40:24;;;;;;;;;6.33;5.00;;;;;19.63;62.47;100808.63;4798715;29;45244;-86
2023/05/11 18:42:51;;;;;;;;;3.67;3.67;;;;;19.61;64.67;100810.47;4797082;29;45370;-86
2023/05/11 18:45:17;;;;;;;;;6.00;3.67;;;;;19.48;62.91;100812.56;4798206;29;45457;-86
2023/05/11 18:47:44;;;;;;;;;5.00;5.00;;;;;19.51;64.76;100811.59;4799172;29;45466;-86
2023/05/11 18:50:15;;;;;;;;;5.00;3.00;;;;;19.62;63.17;100816.78;4798381;29;45579;-87
2023/05/11 18:52:41;;;;;;;;;4.00;4.00;;;;;19.48;63.82;100817.06;4799055;29;45498;-86
2023/05/11 18:55:07;;;;;;;;;4.00;4.00;;;;;19.46;65.18;100817.09;4799868;29;45750;-86
2023/05/11 19:00:06;;;;;;;;;3.67;3.00;;;;;19.31;63.39;100794.03;4779254;29;45418;-87
2023/05/11 19:02:32;;;;;;;;;2.00;2.00;;;;;19.31;63.73;100829.09;4777980;29;45669;-87
2023/05/11 19:04:58;;;;;;;;;4.00;4.00;;;;;19.31;65.45;100820.09;4779124;29;45325;-87
2023/05/11 19:07:23;;;;;;;;;3.00;3.00;;;;;19.36;65.73;100837.97;4779387;29;47068;-87
2023/05/11 19:09:49;;;;;;;;;3.00;2.67;;;;;19.33;65.00;100824.56;4779995;29;45723;-86
2023/05/11 19:12:18;;;;;;;;;3.00;2.00;;;;;19.16;64.34;100815.91;4781926;29;45252;-87
2023/05/11 19:14:43;;;;;;;;;3.00;3.00;;;;;19.19;65.49;100829.34;4780810;29;45450;-87
2023/05/11 19:17:09;;;;;;;;;3.33;3.33;;;;;19.15;62.86;100833.03;4781568;29;45583;-87
2023/05/11 19:19:34;;;;;;;;;3.33;3.33;;;;;19.30;63.93;100851.56;4780656;29;45412;-87
2023/05/11 19:22:00;;;;;;;;;4.33;4.33;;;;;19.08;65.77;100831.38;4778328;29;45976;-87
2023/05/11 19:24:27;;;;;;;;;4.00;4.00;;;;;19.40;66.19;100865.78;4778378;29;45414;-87
2023/05/11 19:26:59;;;;;;;;;5.33;4.00;;;;;19.15;66.51;100824.94;4780121;29;45441;-87
2023/05/11 19:29:24;;;;;;;;;4.00;4.00;;;;;19.11;67.25;100832.19;4777059;29;45281;-87
2023/05/11 19:31:50;;;;;;;;;5.00;3.33;;;;;19.19;62.51;100856.31;4776568;29;45305;-87
2023/05/11 19:34:15;;;;;;;;;6.00;5.00;;;;;19.16;65.59;100859.94;4777522;29;44978;-87
2023/05/11 19:36:41;;;;;;;;;4.33;3.33;;;;;19.12;67.07;100854.66;4777694;29;48234;-87
2023/05/11 19:39:06;;;;;;;;;7.00;5.00;;;;;19.01;67.26;100835.09;4777038;29;45683;-87
2023/05/11 19:41:33;;;;;;;;;2.00;1.67;;;;;18.91;68.04;100827.19;4777963;29;45684;-87
2023/05/11 19:44:00;;;;;;;;;5.00;5.00;;;;;19.12;67.72;100860.03;4780877;29;45483;-87
2023/05/11 19:46:26;;;;;;;;;5.00;5.00;;;;;18.96;68.06;100844.16;4780402;29;46377;-87
2023/05/11 19:52:13;;;;;;;;;3.67;3.67;;;;;19.12;68.08;100871.69;4779934;29;45452;-87